sensor_id;sensor_type;location;lat;lon;timestamp;P1;durP1;ratioP1;P2;durP2;ratioP2
21170;SDS011;10743;52.160;20.910;2023-08-21T00:00:55;29.17;;;14.57;;
21170;SDS011;10743;52.160;20.910;2023-08-21T00:03:23;28.88;;;15.10;;
21170;SDS011;10743;52.160;20.910;2023-08-21T00:05:50;26.45;;;14.48;;
21170;SDS011;10743;52.160;20.910;2023-08-21T00:08:17;31.45;;;15.30;;
21170;SDS011;10743;52.160;20.910;2023-08-21T00:10:44;30.48;;;14.00;;
21170;SDS011;10743;52.160;20.910;2023-08-21T00:13:11;32.30;;;15.43;;
21170;SDS011;10743;52.160;20.910;2023-08-21T00:15:38;28.13;;;14.00;;
21170;SDS011;10743;52.160;20.910;2023-08-21T00:18:06;23.30;;;13.88;;
21170;SDS011;10743;52.160;20.910;2023-08-21T00:20:33;24.38;;;14.32;;
21170;SDS011;10743;52.160;20.910;2023-08-21T00:23:00;28.75;;;14.40;;
21170;SDS011;10743;52.160;20.910;2023-08-21T00:25:27;25.23;;;14.05;;
21170;SDS011;10743;52.160;20.910;2023-08-21T00:27:54;26.40;;;14.32;;
21170;SDS011;10743;52.160;20.910;2023-08-21T00:30:21;27.20;;;14.25;;
21170;SDS011;10743;52.160;20.910;2023-08-21T00:32:48;30.50;;;14.98;;
21170;SDS011;10743;52.160;20.910;2023-08-21T00:35:15;26.23;;;14.55;;
21170;SDS011;10743;52.160;20.910;2023-08-21T00:37:43;30.02;;;14.05;;
21170;SDS011;10743;52.160;20.910;2023-08-21T00:40:10;23.02;;;13.25;;
21170;SDS011;10743;52.160;20.910;2023-08-21T00:42:38;24.10;;;13.80;;
21170;SDS011;10743;52.160;20.910;2023-08-21T00:45:06;28.50;;;13.93;;
21170;SDS011;10743;52.160;20.910;2023-08-21T00:47:35;28.85;;;14.65;;
21170;SDS011;10743;52.160;20.910;2023-08-21T00:50:02;29.60;;;15.98;;
21170;SDS011;10743;52.160;20.910;2023-08-21T00:52:33;36.97;;;16.33;;
21170;SDS011;10743;52.160;20.910;2023-08-21T00:55:02;29.05;;;16.58;;
21170;SDS011;10743;52.160;20.910;2023-08-21T00:57:30;32.55;;;16.23;;
21170;SDS011;10743;52.160;20.910;2023-08-21T00:59:59;28.05;;;15.93;;
21170;SDS011;10743;52.160;20.910;2023-08-21T01:02:27;28.85;;;15.70;;
21170;SDS011;10743;52.160;20.910;2023-08-21T01:04:55;31.90;;;16.75;;
21170;SDS011;10743;52.160;20.910;2023-08-21T01:07:22;37.47;;;16.95;;
21170;SDS011;10743;52.160;20.910;2023-08-21T01:09:50;31.40;;;16.10;;
21170;SDS011;10743;52.160;20.910;2023-08-21T01:12:30;34.00;;;14.90;;
21170;SDS011;10743;52.160;20.910;2023-08-21T01:15:24;23.83;;;14.38;;
21170;SDS011;10743;52.160;20.910;2023-08-21T01:17:51;27.05;;;14.82;;
21170;SDS011;10743;52.160;20.910;2023-08-21T01:20:21;31.48;;;15.18;;
21170;SDS011;10743;52.160;20.910;2023-08-21T01:22:49;24.90;;;14.40;;
21170;SDS011;10743;52.160;20.910;2023-08-21T01:25:16;24.48;;;14.48;;
21170;SDS011;10743;52.160;20.910;2023-08-21T01:27:45;28.75;;;14.02;;
21170;SDS011;10743;52.160;20.910;2023-08-21T01:30:16;29.42;;;15.60;;
21170;SDS011;10743;52.160;20.910;2023-08-21T01:33:00;24.10;;;15.02;;
21170;SDS011;10743;52.160;20.910;2023-08-21T01:35:35;31.13;;;15.68;;
21170;SDS011;10743;52.160;20.910;2023-08-21T01:38:04;31.90;;;14.57;;
21170;SDS011;10743;52.160;20.910;2023-08-21T01:40:32;27.50;;;14.43;;
21170;SDS011;10743;52.160;20.910;2023-08-21T01:42:59;32.05;;;15.02;;
21170;SDS011;10743;52.160;20.910;2023-08-21T01:45:26;32.25;;;15.07;;
21170;SDS011;10743;52.160;20.910;2023-08-21T01:47:53;30.48;;;14.93;;
21170;SDS011;10743;52.160;20.910;2023-08-21T01:50:20;26.60;;;14.77;;
21170;SDS011;10743;52.160;20.910;2023-08-21T01:52:47;28.55;;;13.75;;
21170;SDS011;10743;52.160;20.910;2023-08-21T01:55:14;25.50;;;14.00;;
21170;SDS011;10743;52.160;20.910;2023-08-21T01:57:41;31.60;;;16.30;;
21170;SDS011;10743;52.160;20.910;2023-08-21T02:00:09;31.00;;;16.38;;
21170;SDS011;10743;52.160;20.910;2023-08-21T02:02:39;26.95;;;16.35;;
21170;SDS011;10743;52.160;20.910;2023-08-21T02:05:08;28.88;;;14.38;;
21170;SDS011;10743;52.160;20.910;2023-08-21T02:07:35;24.65;;;15.48;;
21170;SDS011;10743;52.160;20.910;2023-08-21T02:10:02;27.42;;;15.95;;
21170;SDS011;10743;52.160;20.910;2023-08-21T02:12:30;30.70;;;15.80;;
21170;SDS011;10743;52.160;20.910;2023-08-21T02:14:58;29.00;;;15.63;;
21170;SDS011;10743;52.160;20.910;2023-08-21T02:17:28;28.00;;;14.88;;
21170;SDS011;10743;52.160;20.910;2023-08-21T02:19:56;24.67;;;14.35;;
21170;SDS011;10743;52.160;20.910;2023-08-21T02:22:23;22.65;;;14.70;;
21170;SDS011;10743;52.160;20.910;2023-08-21T02:24:50;23.17;;;14.13;;
21170;SDS011;10743;52.160;20.910;2023-08-21T02:27:17;29.30;;;14.60;;
21170;SDS011;10743;52.160;20.910;2023-08-21T02:29:45;24.30;;;13.75;;
21170;SDS011;10743;52.160;20.910;2023-08-21T02:32:12;31.23;;;14.80;;
21170;SDS011;10743;52.160;20.910;2023-08-21T02:34:39;24.67;;;14.52;;
21170;SDS011;10743;52.160;20.910;2023-08-21T02:37:06;31.10;;;14.07;;
21170;SDS011;10743;52.160;20.910;2023-08-21T02:39:34;28.23;;;14.50;;
21170;SDS011;10743;52.160;20.910;2023-08-21T02:42:01;33.55;;;14.40;;
21170;SDS011;10743;52.160;20.910;2023-08-21T02:44:28;22.13;;;13.13;;
21170;SDS011;10743;52.160;20.910;2023-08-21T02:46:55;28.35;;;14.38;;
21170;SDS011;10743;52.160;20.910;2023-08-21T02:49:22;30.10;;;15.32;;
21170;SDS011;10743;52.160;20.910;2023-08-21T02:51:49;30.10;;;16.67;;
21170;SDS011;10743;52.160;20.910;2023-08-21T02:54:16;35.85;;;17.90;;
21170;SDS011;10743;52.160;20.910;2023-08-21T02:56:43;31.10;;;15.95;;
21170;SDS011;10743;52.160;20.910;2023-08-21T02:59:10;28.25;;;15.07;;
21170;SDS011;10743;52.160;20.910;2023-08-21T03:01:38;27.15;;;15.65;;
21170;SDS011;10743;52.160;20.910;2023-08-21T03:04:05;25.92;;;14.35;;
21170;SDS011;10743;52.160;20.910;2023-08-21T03:06:32;30.05;;;15.98;;
21170;SDS011;10743;52.160;20.910;2023-08-21T03:08:59;31.88;;;15.73;;
21170;SDS011;10743;52.160;20.910;2023-08-21T03:11:26;32.45;;;16.58;;
21170;SDS011;10743;52.160;20.910;2023-08-21T03:13:53;30.52;;;16.38;;
21170;SDS011;10743;52.160;20.910;2023-08-21T03:16:21;40.75;;;19.52;;
21170;SDS011;10743;52.160;20.910;2023-08-21T03:18:55;35.33;;;18.65;;
21170;SDS011;10743;52.160;20.910;2023-08-21T03:21:27;44.70;;;19.50;;
21170;SDS011;10743;52.160;20.910;2023-08-21T03:23:56;38.50;;;19.77;;
21170;SDS011;10743;52.160;20.910;2023-08-21T03:26:29;37.00;;;20.48;;
21170;SDS011;10743;52.160;20.910;2023-08-21T03:28:56;43.70;;;23.08;;
21170;SDS011;10743;52.160;20.910;2023-08-21T03:31:24;41.22;;;20.85;;
21170;SDS011;10743;52.160;20.910;2023-08-21T03:33:51;30.95;;;18.50;;
21170;SDS011;10743;52.160;20.910;2023-08-21T03:36:20;38.97;;;17.60;;
21170;SDS011;10743;52.160;20.910;2023-08-21T03:38:58;29.85;;;16.65;;
21170;SDS011;10743;52.160;20.910;2023-08-21T03:41:28;29.30;;;17.23;;
21170;SDS011;10743;52.160;20.910;2023-08-21T03:43:55;33.80;;;18.98;;
21170;SDS011;10743;52.160;20.910;2023-08-21T03:46:22;39.80;;;18.48;;
21170;SDS011;10743;52.160;20.910;2023-08-21T03:48:49;33.90;;;17.17;;
21170;SDS011;10743;52.160;20.910;2023-08-21T03:51:17;30.17;;;16.90;;
21170;SDS011;10743;52.160;20.910;2023-08-21T03:53:44;30.88;;;16.80;;
21170;SDS011;10743;52.160;20.910;2023-08-21T03:56:11;25.17;;;15.82;;
21170;SDS011;10743;52.160;20.910;2023-08-21T03:58:38;27.50;;;15.10;;
21170;SDS011;10743;52.160;20.910;2023-08-21T04:01:05;31.08;;;14.90;;
21170;SDS011;10743;52.160;20.910;2023-08-21T04:03:32;23.50;;;13.93;;
21170;SDS011;10743;52.160;20.910;2023-08-21T04:06:01;28.27;;;14.40;;
21170;SDS011;10743;52.160;20.910;2023-08-21T04:08:28;25.25;;;14.73;;
21170;SDS011;10743;52.160;20.910;2023-08-21T04:10:55;24.65;;;15.27;;
21170;SDS011;10743;52.160;20.910;2023-08-21T04:13:27;29.80;;;15.15;;
21170;SDS011;10743;52.160;20.910;2023-08-21T04:15:54;26.88;;;15.07;;
21170;SDS011;10743;52.160;20.910;2023-08-21T04:18:23;23.50;;;13.98;;
21170;SDS011;10743;52.160;20.910;2023-08-21T04:21:06;25.35;;;13.98;;
21170;SDS011;10743;52.160;20.910;2023-08-21T04:23:34;21.92;;;13.82;;
21170;SDS011;10743;52.160;20.910;2023-08-21T04:26:03;22.92;;;13.93;;
21170;SDS011;10743;52.160;20.910;2023-08-21T04:28:31;27.05;;;13.90;;
21170;SDS011;10743;52.160;20.910;2023-08-21T04:31:03;26.25;;;14.50;;
21170;SDS011;10743;52.160;20.910;2023-08-21T04:33:33;28.08;;;14.23;;
21170;SDS011;10743;52.160;20.910;2023-08-21T04:36:01;26.83;;;14.38;;
21170;SDS011;10743;52.160;20.910;2023-08-21T04:38:28;27.42;;;15.05;;
21170;SDS011;10743;52.160;20.910;2023-08-21T04:40:55;28.83;;;14.38;;
21170;SDS011;10743;52.160;20.910;2023-08-21T04:43:23;23.67;;;13.95;;
21170;SDS011;10743;52.160;20.910;2023-08-21T04:45:51;27.65;;;14.77;;
21170;SDS011;10743;52.160;20.910;2023-08-21T04:48:24;25.30;;;14.20;;
21170;SDS011;10743;52.160;20.910;2023-08-21T04:50:51;21.55;;;13.85;;
21170;SDS011;10743;52.160;20.910;2023-08-21T04:53:18;26.33;;;14.82;;
21170;SDS011;10743;52.160;20.910;2023-08-21T04:55:46;25.90;;;14.27;;
21170;SDS011;10743;52.160;20.910;2023-08-21T04:58:13;21.95;;;14.07;;
21170;SDS011;10743;52.160;20.910;2023-08-21T05:00:41;22.27;;;14.50;;
21170;SDS011;10743;52.160;20.910;2023-08-21T05:03:10;27.17;;;14.25;;
21170;SDS011;10743;52.160;20.910;2023-08-21T05:05:39;26.27;;;15.30;;
21170;SDS011;10743;52.160;20.910;2023-08-21T05:08:08;33.47;;;17.42;;
21170;SDS011;10743;52.160;20.910;2023-08-21T05:10:35;30.92;;;17.40;;
21170;SDS011;10743;52.160;20.910;2023-08-21T05:13:03;31.13;;;15.52;;
21170;SDS011;10743;52.160;20.910;2023-08-21T05:15:31;29.48;;;14.82;;
21170;SDS011;10743;52.160;20.910;2023-08-21T05:17:58;26.05;;;14.40;;
21170;SDS011;10743;52.160;20.910;2023-08-21T05:20:26;21.58;;;13.98;;
21170;SDS011;10743;52.160;20.910;2023-08-21T05:22:53;28.33;;;14.02;;
21170;SDS011;10743;52.160;20.910;2023-08-21T05:25:20;22.73;;;13.75;;
21170;SDS011;10743;52.160;20.910;2023-08-21T05:27:48;26.98;;;15.27;;
21170;SDS011;10743;52.160;20.910;2023-08-21T05:30:15;27.45;;;14.13;;
21170;SDS011;10743;52.160;20.910;2023-08-21T05:32:42;30.23;;;16.42;;
21170;SDS011;10743;52.160;20.910;2023-08-21T05:35:10;25.55;;;15.48;;
21170;SDS011;10743;52.160;20.910;2023-08-21T05:37:37;28.80;;;14.55;;
21170;SDS011;10743;52.160;20.910;2023-08-21T05:40:05;22.55;;;14.00;;
21170;SDS011;10743;52.160;20.910;2023-08-21T05:42:34;22.48;;;14.27;;
21170;SDS011;10743;52.160;20.910;2023-08-21T05:45:02;22.60;;;14.00;;
21170;SDS011;10743;52.160;20.910;2023-08-21T05:47:31;29.27;;;14.77;;
21170;SDS011;10743;52.160;20.910;2023-08-21T05:49:59;25.15;;;14.30;;
21170;SDS011;10743;52.160;20.910;2023-08-21T05:52:33;31.42;;;15.60;;
21170;SDS011;10743;52.160;20.910;2023-08-21T05:55:01;26.95;;;14.38;;
21170;SDS011;10743;52.160;20.910;2023-08-21T05:57:28;30.75;;;15.18;;
21170;SDS011;10743;52.160;20.910;2023-08-21T05:59:56;26.90;;;15.23;;
21170;SDS011;10743;52.160;20.910;2023-08-21T06:02:24;25.90;;;15.27;;
21170;SDS011;10743;52.160;20.910;2023-08-21T06:04:51;24.27;;;15.00;;
21170;SDS011;10743;52.160;20.910;2023-08-21T06:07:21;29.85;;;16.42;;
21170;SDS011;10743;52.160;20.910;2023-08-21T06:09:48;23.63;;;14.70;;
21170;SDS011;10743;52.160;20.910;2023-08-21T06:12:15;28.13;;;13.55;;
21170;SDS011;10743;52.160;20.910;2023-08-21T06:14:43;26.52;;;15.35;;
21170;SDS011;10743;52.160;20.910;2023-08-21T06:17:11;24.48;;;15.40;;
21170;SDS011;10743;52.160;20.910;2023-08-21T06:19:38;31.73;;;16.05;;
21170;SDS011;10743;52.160;20.910;2023-08-21T06:22:05;27.60;;;15.07;;
21170;SDS011;10743;52.160;20.910;2023-08-21T06:24:33;26.85;;;15.73;;
21170;SDS011;10743;52.160;20.910;2023-08-21T06:27:03;27.63;;;16.75;;
21170;SDS011;10743;52.160;20.910;2023-08-21T06:29:34;29.05;;;15.15;;
21170;SDS011;10743;52.160;20.910;2023-08-21T06:32:01;27.48;;;16.63;;
21170;SDS011;10743;52.160;20.910;2023-08-21T06:34:29;29.20;;;15.93;;
21170;SDS011;10743;52.160;20.910;2023-08-21T06:36:56;28.88;;;16.52;;
21170;SDS011;10743;52.160;20.910;2023-08-21T06:39:23;28.52;;;15.52;;
21170;SDS011;10743;52.160;20.910;2023-08-21T06:41:52;29.33;;;16.15;;
21170;SDS011;10743;52.160;20.910;2023-08-21T06:44:19;22.95;;;14.93;;
21170;SDS011;10743;52.160;20.910;2023-08-21T06:46:47;25.50;;;15.07;;
21170;SDS011;10743;52.160;20.910;2023-08-21T06:49:15;23.13;;;15.38;;
21170;SDS011;10743;52.160;20.910;2023-08-21T06:51:42;30.83;;;16.20;;
21170;SDS011;10743;52.160;20.910;2023-08-21T06:54:09;24.33;;;15.25;;
21170;SDS011;10743;52.160;20.910;2023-08-21T06:56:36;32.72;;;16.40;;
21170;SDS011;10743;52.160;20.910;2023-08-21T06:59:03;26.23;;;15.98;;
21170;SDS011;10743;52.160;20.910;2023-08-21T07:01:30;27.23;;;16.88;;
21170;SDS011;10743;52.160;20.910;2023-08-21T07:03:57;29.00;;;17.42;;
21170;SDS011;10743;52.160;20.910;2023-08-21T07:06:27;25.08;;;16.00;;
21170;SDS011;10743;52.160;20.910;2023-08-21T07:08:55;27.70;;;16.45;;
21170;SDS011;10743;52.160;20.910;2023-08-21T07:11:22;26.65;;;16.27;;
21170;SDS011;10743;52.160;20.910;2023-08-21T07:13:49;22.92;;;15.80;;
21170;SDS011;10743;52.160;20.910;2023-08-21T07:16:16;24.73;;;14.98;;
21170;SDS011;10743;52.160;20.910;2023-08-21T07:18:43;31.27;;;17.48;;
21170;SDS011;10743;52.160;20.910;2023-08-21T07:21:10;28.63;;;16.83;;
21170;SDS011;10743;52.160;20.910;2023-08-21T07:23:52;25.42;;;15.73;;
21170;SDS011;10743;52.160;20.910;2023-08-21T07:26:19;29.83;;;17.83;;
21170;SDS011;10743;52.160;20.910;2023-08-21T07:28:46;30.00;;;16.50;;
21170;SDS011;10743;52.160;20.910;2023-08-21T07:31:13;25.33;;;15.63;;
21170;SDS011;10743;52.160;20.910;2023-08-21T07:33:40;26.73;;;16.40;;
21170;SDS011;10743;52.160;20.910;2023-08-21T07:36:07;24.98;;;15.25;;
21170;SDS011;10743;52.160;20.910;2023-08-21T07:38:34;22.17;;;15.85;;
21170;SDS011;10743;52.160;20.910;2023-08-21T07:41:05;24.23;;;15.55;;
21170;SDS011;10743;52.160;20.910;2023-08-21T07:43:36;25.63;;;15.63;;
21170;SDS011;10743;52.160;20.910;2023-08-21T07:46:07;24.63;;;15.85;;
21170;SDS011;10743;52.160;20.910;2023-08-21T07:48:39;26.00;;;15.40;;
21170;SDS011;10743;52.160;20.910;2023-08-21T07:51:07;26.73;;;15.45;;
21170;SDS011;10743;52.160;20.910;2023-08-21T07:53:34;27.13;;;15.73;;
21170;SDS011;10743;52.160;20.910;2023-08-21T07:56:02;28.70;;;16.10;;
21170;SDS011;10743;52.160;20.910;2023-08-21T07:58:30;31.85;;;15.95;;
21170;SDS011;10743;52.160;20.910;2023-08-21T08:00:58;32.78;;;16.63;;
21170;SDS011;10743;52.160;20.910;2023-08-21T08:03:26;24.60;;;15.55;;
21170;SDS011;10743;52.160;20.910;2023-08-21T08:05:53;30.55;;;16.33;;
21170;SDS011;10743;52.160;20.910;2023-08-21T08:08:21;27.60;;;15.55;;
21170;SDS011;10743;52.160;20.910;2023-08-21T08:10:48;24.90;;;15.57;;
21170;SDS011;10743;52.160;20.910;2023-08-21T08:13:16;29.40;;;15.77;;
21170;SDS011;10743;52.160;20.910;2023-08-21T08:15:43;28.70;;;14.98;;
21170;SDS011;10743;52.160;20.910;2023-08-21T08:18:11;28.60;;;15.13;;
21170;SDS011;10743;52.160;20.910;2023-08-21T08:20:39;27.77;;;14.48;;
21170;SDS011;10743;52.160;20.910;2023-08-21T08:23:07;22.45;;;14.60;;
21170;SDS011;10743;52.160;20.910;2023-08-21T08:25:34;23.70;;;14.32;;
21170;SDS011;10743;52.160;20.910;2023-08-21T08:28:01;24.60;;;13.20;;
21170;SDS011;10743;52.160;20.910;2023-08-21T08:30:29;23.33;;;14.05;;
21170;SDS011;10743;52.160;20.910;2023-08-21T08:32:56;22.90;;;12.88;;
21170;SDS011;10743;52.160;20.910;2023-08-21T08:35:23;28.50;;;13.60;;
21170;SDS011;10743;52.160;20.910;2023-08-21T08:37:50;23.92;;;14.00;;
21170;SDS011;10743;52.160;20.910;2023-08-21T08:40:17;21.25;;;12.85;;
21170;SDS011;10743;52.160;20.910;2023-08-21T08:42:44;21.75;;;13.68;;
21170;SDS011;10743;52.160;20.910;2023-08-21T08:45:12;21.85;;;13.02;;
21170;SDS011;10743;52.160;20.910;2023-08-21T08:47:40;20.50;;;13.00;;
21170;SDS011;10743;52.160;20.910;2023-08-21T08:50:08;18.10;;;11.70;;
21170;SDS011;10743;52.160;20.910;2023-08-21T08:52:37;18.40;;;12.48;;
21170;SDS011;10743;52.160;20.910;2023-08-21T08:55:06;18.75;;;12.63;;
21170;SDS011;10743;52.160;20.910;2023-08-21T08:57:34;22.75;;;12.65;;
21170;SDS011;10743;52.160;20.910;2023-08-21T09:00:02;19.33;;;11.70;;
21170;SDS011;10743;52.160;20.910;2023-08-21T09:02:31;18.13;;;11.63;;
21170;SDS011;10743;52.160;20.910;2023-08-21T09:04:58;20.17;;;11.23;;
21170;SDS011;10743;52.160;20.910;2023-08-21T09:07:25;16.00;;;10.77;;
21170;SDS011;10743;52.160;20.910;2023-08-21T09:09:52;17.10;;;10.70;;
21170;SDS011;10743;52.160;20.910;2023-08-21T09:12:20;17.15;;;11.93;;
21170;SDS011;10743;52.160;20.910;2023-08-21T09:14:47;14.30;;;10.90;;
21170;SDS011;10743;52.160;20.910;2023-08-21T09:17:15;19.02;;;11.63;;
21170;SDS011;10743;52.160;20.910;2023-08-21T09:19:42;15.10;;;10.88;;
21170;SDS011;10743;52.160;20.910;2023-08-21T09:22:14;15.93;;;10.35;;
21170;SDS011;10743;52.160;20.910;2023-08-21T09:25:01;16.25;;;9.95;;
21170;SDS011;10743;52.160;20.910;2023-08-21T09:27:34;12.93;;;9.18;;
21170;SDS011;10743;52.160;20.910;2023-08-21T09:30:08;14.88;;;8.60;;
21170;SDS011;10743;52.160;20.910;2023-08-21T09:32:52;12.80;;;8.70;;
21170;SDS011;10743;52.160;20.910;2023-08-21T09:35:21;11.95;;;8.35;;
21170;SDS011;10743;52.160;20.910;2023-08-21T09:37:49;13.73;;;8.00;;
21170;SDS011;10743;52.160;20.910;2023-08-21T09:40:20;12.90;;;7.68;;
21170;SDS011;10743;52.160;20.910;2023-08-21T09:42:52;12.85;;;7.82;;
21170;SDS011;10743;52.160;20.910;2023-08-21T09:45:23;14.02;;;8.68;;
21170;SDS011;10743;52.160;20.910;2023-08-21T09:47:52;11.48;;;7.97;;
21170;SDS011;10743;52.160;20.910;2023-08-21T09:50:21;15.27;;;7.80;;
21170;SDS011;10743;52.160;20.910;2023-08-21T09:52:49;12.43;;;7.70;;
21170;SDS011;10743;52.160;20.910;2023-08-21T09:55:17;13.80;;;7.28;;
21170;SDS011;10743;52.160;20.910;2023-08-21T09:57:45;10.77;;;6.78;;
21170;SDS011;10743;52.160;20.910;2023-08-21T10:00:14;18.60;;;10.88;;
21170;SDS011;10743;52.160;20.910;2023-08-21T10:02:42;12.73;;;7.90;;
21170;SDS011;10743;52.160;20.910;2023-08-21T10:05:15;12.95;;;6.93;;
21170;SDS011;10743;52.160;20.910;2023-08-21T10:07:46;16.38;;;8.48;;
21170;SDS011;10743;52.160;20.910;2023-08-21T10:10:16;10.07;;;6.90;;
21170;SDS011;10743;52.160;20.910;2023-08-21T10:12:44;11.70;;;7.20;;
21170;SDS011;10743;52.160;20.910;2023-08-21T10:15:11;11.85;;;7.20;;
21170;SDS011;10743;52.160;20.910;2023-08-21T10:17:39;10.50;;;6.75;;
21170;SDS011;10743;52.160;20.910;2023-08-21T10:20:09;9.35;;;7.20;;
21170;SDS011;10743;52.160;20.910;2023-08-21T10:22:38;9.20;;;6.53;;
21170;SDS011;10743;52.160;20.910;2023-08-21T10:27:55;10.98;;;5.88;;
21170;SDS011;10743;52.160;20.910;2023-08-21T10:30:25;9.77;;;6.00;;
21170;SDS011;10743;52.160;20.910;2023-08-21T10:32:55;8.30;;;6.00;;
21170;SDS011;10743;52.160;20.910;2023-08-21T10:35:25;8.10;;;5.80;;
21170;SDS011;10743;52.160;20.910;2023-08-21T10:38:10;9.07;;;5.65;;
21170;SDS011;10743;52.160;20.910;2023-08-21T10:43:45;8.45;;;5.40;;
21170;SDS011;10743;52.160;20.910;2023-08-21T10:46:12;7.15;;;5.53;;
21170;SDS011;10743;52.160;20.910;2023-08-21T10:48:42;9.55;;;5.90;;
21170;SDS011;10743;52.160;20.910;2023-08-21T10:51:09;13.18;;;5.60;;
21170;SDS011;10743;52.160;20.910;2023-08-21T10:53:39;8.18;;;4.57;;
21170;SDS011;10743;52.160;20.910;2023-08-21T10:56:07;9.77;;;5.03;;
21170;SDS011;10743;52.160;20.910;2023-08-21T10:58:37;10.82;;;5.38;;
21170;SDS011;10743;52.160;20.910;2023-08-21T11:01:07;6.88;;;5.05;;
21170;SDS011;10743;52.160;20.910;2023-08-21T11:03:38;7.50;;;5.35;;
21170;SDS011;10743;52.160;20.910;2023-08-21T11:06:07;9.00;;;6.03;;
21170;SDS011;10743;52.160;20.910;2023-08-21T11:08:35;9.02;;;5.05;;
21170;SDS011;10743;52.160;20.910;2023-08-21T11:11:04;10.35;;;5.10;;
21170;SDS011;10743;52.160;20.910;2023-08-21T11:13:32;9.13;;;5.25;;
21170;SDS011;10743;52.160;20.910;2023-08-21T11:16:03;6.88;;;4.75;;
21170;SDS011;10743;52.160;20.910;2023-08-21T11:18:35;7.03;;;4.82;;
21170;SDS011;10743;52.160;20.910;2023-08-21T11:21:07;5.25;;;4.20;;
21170;SDS011;10743;52.160;20.910;2023-08-21T11:23:37;10.32;;;4.80;;
21170;SDS011;10743;52.160;20.910;2023-08-21T11:26:09;6.63;;;4.57;;
21170;SDS011;10743;52.160;20.910;2023-08-21T11:28:47;8.90;;;4.63;;
21170;SDS011;10743;52.160;20.910;2023-08-21T11:31:15;9.75;;;4.28;;
21170;SDS011;10743;52.160;20.910;2023-08-21T11:33:48;6.75;;;4.15;;
21170;SDS011;10743;52.160;20.910;2023-08-21T11:36:17;7.00;;;4.07;;
21170;SDS011;10743;52.160;20.910;2023-08-21T11:38:57;5.90;;;3.97;;
21170;SDS011;10743;52.160;20.910;2023-08-21T11:41:30;9.48;;;4.20;;
21170;SDS011;10743;52.160;20.910;2023-08-21T11:44:01;9.43;;;4.22;;
21170;SDS011;10743;52.160;20.910;2023-08-21T11:46:30;7.10;;;4.35;;
21170;SDS011;10743;52.160;20.910;2023-08-21T11:48:57;6.82;;;4.03;;
21170;SDS011;10743;52.160;20.910;2023-08-21T11:51:26;4.38;;;3.85;;
21170;SDS011;10743;52.160;20.910;2023-08-21T11:53:54;7.25;;;4.63;;
21170;SDS011;10743;52.160;20.910;2023-08-21T11:56:21;6.65;;;4.35;;
21170;SDS011;10743;52.160;20.910;2023-08-21T11:58:54;6.25;;;4.00;;
21170;SDS011;10743;52.160;20.910;2023-08-21T12:01:22;7.70;;;4.35;;
21170;SDS011;10743;52.160;20.910;2023-08-21T12:03:49;7.65;;;4.53;;
21170;SDS011;10743;52.160;20.910;2023-08-21T12:06:23;5.43;;;4.18;;
21170;SDS011;10743;52.160;20.910;2023-08-21T12:08:52;9.23;;;4.20;;
21170;SDS011;10743;52.160;20.910;2023-08-21T12:11:19;7.22;;;4.00;;
21170;SDS011;10743;52.160;20.910;2023-08-21T12:13:47;7.63;;;4.00;;
21170;SDS011;10743;52.160;20.910;2023-08-21T12:16:14;9.75;;;3.90;;
21170;SDS011;10743;52.160;20.910;2023-08-21T12:18:41;4.53;;;2.90;;
21170;SDS011;10743;52.160;20.910;2023-08-21T12:21:08;7.20;;;3.22;;
21170;SDS011;10743;52.160;20.910;2023-08-21T12:23:35;6.60;;;3.30;;
21170;SDS011;10743;52.160;20.910;2023-08-21T12:26:02;9.57;;;3.42;;
21170;SDS011;10743;52.160;20.910;2023-08-21T12:28:29;3.17;;;2.83;;
21170;SDS011;10743;52.160;20.910;2023-08-21T12:30:56;6.13;;;3.15;;
21170;SDS011;10743;52.160;20.910;2023-08-21T12:33:24;5.30;;;3.17;;
21170;SDS011;10743;52.160;20.910;2023-08-21T12:35:51;7.90;;;3.35;;
21170;SDS011;10743;52.160;20.910;2023-08-21T12:38:18;9.63;;;4.22;;
21170;SDS011;10743;52.160;20.910;2023-08-21T12:40:47;7.82;;;3.67;;
21170;SDS011;10743;52.160;20.910;2023-08-21T12:43:14;5.10;;;2.92;;
21170;SDS011;10743;52.160;20.910;2023-08-21T12:45:41;5.60;;;3.15;;
21170;SDS011;10743;52.160;20.910;2023-08-21T12:48:08;4.38;;;2.75;;
21170;SDS011;10743;52.160;20.910;2023-08-21T12:50:35;7.13;;;3.33;;
21170;SDS011;10743;52.160;20.910;2023-08-21T12:53:02;5.35;;;3.20;;
21170;SDS011;10743;52.160;20.910;2023-08-21T12:55:29;4.85;;;2.60;;
21170;SDS011;10743;52.160;20.910;2023-08-21T12:57:56;5.55;;;2.53;;
21170;SDS011;10743;52.160;20.910;2023-08-21T13:00:24;5.30;;;2.97;;
21170;SDS011;10743;52.160;20.910;2023-08-21T13:02:51;4.93;;;2.65;;
21170;SDS011;10743;52.160;20.910;2023-08-21T13:05:18;4.05;;;2.55;;
21170;SDS011;10743;52.160;20.910;2023-08-21T13:07:45;5.80;;;2.63;;
21170;SDS011;10743;52.160;20.910;2023-08-21T13:10:12;5.72;;;2.78;;
21170;SDS011;10743;52.160;20.910;2023-08-21T13:12:39;5.32;;;2.70;;
21170;SDS011;10743;52.160;20.910;2023-08-21T13:15:07;2.47;;;2.10;;
21170;SDS011;10743;52.160;20.910;2023-08-21T13:17:35;3.83;;;2.42;;
21170;SDS011;10743;52.160;20.910;2023-08-21T13:20:03;7.55;;;2.25;;
21170;SDS011;10743;52.160;20.910;2023-08-21T13:25:18;6.45;;;2.58;;
21170;SDS011;10743;52.160;20.910;2023-08-21T13:27:47;4.32;;;2.42;;
21170;SDS011;10743;52.160;20.910;2023-08-21T13:30:15;2.55;;;2.20;;
21170;SDS011;10743;52.160;20.910;2023-08-21T13:32:42;3.63;;;2.30;;
21170;SDS011;10743;52.160;20.910;2023-08-21T13:35:10;5.07;;;2.22;;
21170;SDS011;10743;52.160;20.910;2023-08-21T13:37:38;5.68;;;2.30;;
21170;SDS011;10743;52.160;20.910;2023-08-21T13:40:06;4.60;;;2.35;;
21170;SDS011;10743;52.160;20.910;2023-08-21T13:42:39;3.05;;;2.50;;
21170;SDS011;10743;52.160;20.910;2023-08-21T13:45:09;7.75;;;2.58;;
21170;SDS011;10743;52.160;20.910;2023-08-21T13:47:39;4.50;;;2.60;;
21170;SDS011;10743;52.160;20.910;2023-08-21T13:50:09;8.02;;;2.22;;
21170;SDS011;10743;52.160;20.910;2023-08-21T13:52:37;10.77;;;2.83;;
21170;SDS011;10743;52.160;20.910;2023-08-21T13:55:06;3.30;;;2.45;;
21170;SDS011;10743;52.160;20.910;2023-08-21T13:57:35;5.53;;;2.85;;
21170;SDS011;10743;52.160;20.910;2023-08-21T14:00:04;9.15;;;3.25;;
21170;SDS011;10743;52.160;20.910;2023-08-21T14:02:34;7.10;;;3.45;;
21170;SDS011;10743;52.160;20.910;2023-08-21T14:05:04;5.95;;;2.58;;
21170;SDS011;10743;52.160;20.910;2023-08-21T14:07:32;8.32;;;2.40;;
21170;SDS011;10743;52.160;20.910;2023-08-21T14:10:00;5.63;;;3.25;;
21170;SDS011;10743;52.160;20.910;2023-08-21T14:12:28;6.50;;;2.53;;
21170;SDS011;10743;52.160;20.910;2023-08-21T14:14:57;5.38;;;2.67;;
21170;SDS011;10743;52.160;20.910;2023-08-21T14:17:26;8.43;;;2.65;;
21170;SDS011;10743;52.160;20.910;2023-08-21T14:19:54;6.28;;;2.85;;
21170;SDS011;10743;52.160;20.910;2023-08-21T14:22:21;7.05;;;3.55;;
21170;SDS011;10743;52.160;20.910;2023-08-21T14:24:49;5.68;;;2.50;;
21170;SDS011;10743;52.160;20.910;2023-08-21T14:27:16;5.72;;;2.60;;
21170;SDS011;10743;52.160;20.910;2023-08-21T14:29:43;6.03;;;2.60;;
21170;SDS011;10743;52.160;20.910;2023-08-21T14:32:10;6.05;;;2.33;;